Terminal Aerodrome Forecast
Issued by NWS Charleston, WV

Current Version | Previous Version | Text Only | Print | Product List | Glossary Off
Versions: 1 2 3 4 5 6 7 8 9 10 11 12 13 14 15 16 17 18 19 20 21 22 23

000
FTUS41 KRLX 200500
TAFPKB
TAF
KPKB 200537Z 2006/2106 26009KT P6SM OVC050
     FM201100 25007KT P6SM SKC
     FM201600 27007KT P6SM SCT035
     FM210000 26007KT P6SM BKN035
     FM210400 28004KT P6SM SCT035=

USA.gov is the U.S. government's official web portal to all federal, state and local government web resources and services.